Leiding, Minnesota
Current Conditions -  °F | °C
As of 9:33 AM on Thursday 30 Oct 2014 (Local Time) from KORB Reporting Station
Overcast Overcast  
Wind Chill: 28°   Ceiling: 900
Heat Index: 34°   Visibility: 10mi
Dew Point: 30°   Wind: 7mph
Humidity: 87%   Direction: 300°WNW
Pressure: 30.06"   Gusts: NA
Location:  48.1455°N, 92.8504°W
Report Text: KORB 301433Z AUTO 30006KT 10SM OVC009 01/M01 A3006 RMK AO2
Loading
Personal Weather Stations






























Interactive Weather Map
Tropical Storm Tracking
New forecast layout! Learn more

10-Day Weather Forecast

Advertisements
Track Severe Weather on mobile